Terminal Aerodrome Forecast
Issued by NWS Pocatello, ID

Home | Current Version | Previous Version | Text Only | Print | Product List | Glossary On
Versions: 1 2 3 4 5 6 7 8 9 10 11 12 13 14 15 16 17 18 19 20
951
FTUS45 KPIH 221735
TAFPIH
TAF
KPIH 221735Z 2218/2318 20011KT P6SM FEW040
     FM222300 03007KT P6SM SCT070 BKN120
     FM230400 05006KT P6SM VCSH SCT025 BKN035 OVC110
     FM230900 30010G15KT 3SM -SN SCT009 BKN015 OVC025=

USA.gov is the U.S. government's official web portal to all federal, state and local government web resources and services.